createdAt,value
2023-03-25T00:01:08.537Z,99238.84
2023-03-25T00:03:37.661Z,99228.66
2023-03-25T00:06:06.278Z,99229.56
2023-03-25T00:08:32.996Z,99221.34
2023-03-25T00:11:01.225Z,99227.78
2023-03-25T00:13:27.739Z,99230.28
2023-03-25T00:15:57.615Z,99223.59
2023-03-25T00:18:28.605Z,99221.72
2023-03-25T00:20:55.858Z,99223.84
2023-03-25T00:23:22.811Z,99224.03
2023-03-25T00:25:52.119Z,99223.87
2023-03-25T00:28:19.081Z,99234.81
2023-03-25T00:30:46.005Z,99224.91
2023-03-25T00:33:13.102Z,99225.00
2023-03-25T00:35:44.048Z,99220.34
2023-03-25T00:38:11.405Z,99216.63
2023-03-25T00:40:38.602Z,99210.75
2023-03-25T00:43:05.920Z,99211.53
2023-03-25T00:45:33.502Z,99212.31
2023-03-25T00:48:00.496Z,99218.09
2023-03-25T00:50:27.170Z,99222.84
2023-03-25T00:52:54.016Z,99209.09
2023-03-25T00:55:21.401Z,99213.66
2023-03-25T00:57:48.024Z,99206.22
2023-03-25T01:00:17.293Z,99215.13
2023-03-25T01:02:45.143Z,99213.47
2023-03-25T01:05:11.731Z,99207.66
2023-03-25T01:07:39.569Z,99206.28
2023-03-25T01:10:08.415Z,99203.28
2023-03-25T01:12:34.899Z,99208.97
2023-03-25T01:15:01.678Z,99201.94
2023-03-25T01:17:29.848Z,99194.50
2023-03-25T01:19:56.628Z,99194.66
2023-03-25T01:22:23.272Z,99184.94
2023-03-25T01:24:50.029Z,99186.37
2023-03-25T01:27:16.610Z,99176.91
2023-03-25T01:29:43.296Z,99175.16
2023-03-25T01:32:10.309Z,99158.03
2023-03-25T01:34:37.991Z,99163.50
2023-03-25T01:37:04.443Z,99147.37
2023-03-25T01:39:31.282Z,99150.53
2023-03-25T01:41:57.908Z,99156.00
2023-03-25T01:45:00.229Z,99145.00
2023-03-25T01:47:27.536Z,99126.41
2023-03-25T01:49:54.124Z,99151.91
2023-03-25T01:52:24.854Z,99145.19
2023-03-25T01:54:55.376Z,99142.41
2023-03-25T01:57:23.686Z,99145.75
2023-03-25T01:59:53.508Z,99147.00
2023-03-25T02:02:21.200Z,99148.78
2023-03-25T02:04:58.314Z,99141.66
2023-03-25T02:07:30.602Z,99136.84
2023-03-25T02:10:01.511Z,99119.31
2023-03-25T02:12:29.225Z,99121.00
2023-03-25T02:15:00.158Z,99121.44
2023-03-25T02:17:51.193Z,99118.66
2023-03-25T02:20:53.684Z,99124.97
2023-03-25T02:23:41.340Z,99121.25
2023-03-25T02:26:41.913Z,99120.00
2023-03-25T02:29:28.604Z,99123.00
2023-03-25T02:32:29.739Z,99115.56
2023-03-25T02:35:24.020Z,99113.69
2023-03-25T02:38:21.161Z,99106.75
2023-03-25T02:40:57.942Z,99102.50
2023-03-25T02:43:39.908Z,99101.78
2023-03-25T02:46:11.426Z,99089.50
2023-03-25T02:48:50.620Z,99096.06
2023-03-25T02:51:23.845Z,99094.75
2023-03-25T02:53:52.761Z,99089.91
2023-03-25T02:56:22.739Z,99088.81
2023-03-25T02:58:55.034Z,99083.16
2023-03-25T03:01:26.203Z,99088.28
2023-03-25T03:03:54.657Z,99081.41
2023-03-25T03:06:23.741Z,99070.09
2023-03-25T03:09:11.068Z,99060.72
2023-03-25T03:11:57.948Z,99061.13
2023-03-25T03:14:35.165Z,99057.53
2023-03-25T03:17:27.795Z,99054.72
2023-03-25T03:20:01.890Z,99049.91
2023-03-25T03:22:46.216Z,99045.47
2023-03-25T03:25:27.131Z,99045.28
2023-03-25T03:28:01.497Z,99038.88
2023-03-25T03:30:43.321Z,99037.31
2023-03-25T03:33:38.285Z,99035.56
2023-03-25T03:36:13.111Z,99027.31
2023-03-25T03:38:47.191Z,99022.03
2023-03-25T03:41:20.398Z,99030.56
2023-03-25T03:43:53.402Z,99026.47
2023-03-25T03:46:26.921Z,99019.16
2023-03-25T03:48:56.672Z,98996.88
2023-03-25T03:51:31.503Z,98994.91
2023-03-25T03:54:03.343Z,98996.66
2023-03-25T03:56:37.875Z,99005.72
2023-03-25T03:59:12.086Z,99004.59
2023-03-25T04:01:46.172Z,98991.81
2023-03-25T04:04:20.809Z,98983.09
2023-03-25T04:06:56.272Z,98974.56
2023-03-25T04:09:54.500Z,98974.91
2023-03-25T04:12:25.785Z,98967.13
2023-03-25T04:14:54.762Z,98957.91
2023-03-25T04:17:23.384Z,98951.47
2023-03-25T04:19:52.984Z,98955.16
2023-03-25T04:22:21.164Z,98942.59
2023-03-25T04:24:51.146Z,98946.88
2023-03-25T04:27:19.089Z,98937.72
2023-03-25T04:29:47.084Z,98939.00
2023-03-25T04:32:14.243Z,98929.09
2023-03-25T04:34:41.426Z,98926.81
2023-03-25T04:37:08.352Z,98929.22
2023-03-25T04:39:34.890Z,98924.63
2023-03-25T04:42:02.532Z,98931.09
2023-03-25T04:44:32.840Z,98918.41
2023-03-25T04:47:01.728Z,98915.03
2023-03-25T04:49:28.411Z,98909.50
2023-03-25T04:51:56.353Z,98899.81
2023-03-25T04:54:23.594Z,98903.56
2023-03-25T04:56:51.510Z,98898.31
2023-03-25T04:59:19.267Z,98905.25
2023-03-25T05:01:46.858Z,98889.91
2023-03-25T05:04:16.677Z,98896.37
2023-03-25T05:06:46.563Z,98904.56
2023-03-25T05:09:16.057Z,98892.44
2023-03-25T05:11:42.978Z,98878.81
2023-03-25T05:14:10.364Z,98885.34
2023-03-25T05:16:37.405Z,98871.63
2023-03-25T05:19:05.909Z,98870.47
2023-03-25T05:21:35.690Z,98861.94
2023-03-25T05:24:03.876Z,98871.44
2023-03-25T05:26:33.687Z,98856.50
2023-03-25T05:29:05.176Z,98859.63
2023-03-25T05:31:31.987Z,98845.84
2023-03-25T05:33:58.587Z,98839.34
2023-03-25T05:36:25.214Z,98840.25
2023-03-25T05:38:53.872Z,98852.88
2023-03-25T05:41:22.186Z,98860.88
2023-03-25T05:43:50.323Z,98860.63
2023-03-25T05:46:18.480Z,98860.84
2023-03-25T05:48:45.951Z,98850.03
2023-03-25T05:51:15.904Z,98842.03
2023-03-25T05:53:44.258Z,98844.34
2023-03-25T05:56:11.306Z,98845.81
2023-03-25T05:58:38.917Z,98857.59
2023-03-25T06:01:06.101Z,98853.84
2023-03-25T06:03:33.678Z,98845.50
2023-03-25T06:06:01.154Z,98831.00
2023-03-25T06:08:29.285Z,98822.63
2023-03-25T06:10:57.860Z,98829.38
2023-03-25T06:13:24.857Z,98826.63
2023-03-25T06:15:55.472Z,98828.44
2023-03-25T06:18:24.223Z,98827.50
2023-03-25T06:20:56.262Z,98819.41
2023-03-25T06:23:24.335Z,98814.78
2023-03-25T06:25:51.053Z,98821.16
2023-03-25T06:28:18.604Z,98823.41
2023-03-25T06:30:46.630Z,98839.38
2023-03-25T06:33:14.534Z,98831.28
2023-03-25T06:36:01.186Z,98830.81
2023-03-25T06:38:29.385Z,98831.81
2023-03-25T06:40:57.716Z,98821.09
2023-03-25T06:43:24.753Z,98822.13
2023-03-25T06:45:52.563Z,98815.00
2023-03-25T06:48:20.166Z,98801.09
2023-03-25T06:50:46.924Z,98794.66
2023-03-25T06:53:13.497Z,98802.91
2023-03-25T06:55:40.797Z,98802.22
2023-03-25T06:58:07.594Z,98802.31
2023-03-25T07:00:34.206Z,98793.16
2023-03-25T07:03:01.159Z,98768.66
2023-03-25T07:05:28.251Z,98763.56
2023-03-25T07:07:54.869Z,98768.66
2023-03-25T07:10:21.344Z,98771.31
2023-03-25T07:12:48.278Z,98772.69
2023-03-25T07:15:14.891Z,98789.53
2023-03-25T07:17:43.155Z,98778.56
2023-03-25T07:20:12.142Z,98773.53
2023-03-25T07:22:40.083Z,98773.22
2023-03-25T07:25:06.936Z,98767.50
2023-03-25T07:27:33.665Z,98756.38
2023-03-25T07:30:01.158Z,98755.94
2023-03-25T07:32:29.672Z,98750.28
2023-03-25T07:34:56.948Z,98729.56
2023-03-25T07:37:23.430Z,98733.59
2023-03-25T07:39:50.064Z,98744.50
2023-03-25T07:42:17.009Z,98735.59
2023-03-25T07:44:45.896Z,98755.78
2023-03-25T07:47:12.339Z,98746.75
2023-03-25T07:49:40.403Z,98760.22
2023-03-25T07:52:07.152Z,98761.59
2023-03-25T07:54:33.625Z,98765.44
2023-03-25T07:57:00.383Z,98746.75
2023-03-25T07:59:28.829Z,98746.19
2023-03-25T08:01:55.893Z,98749.13
2023-03-25T08:04:22.829Z,98749.69
2023-03-25T08:06:49.337Z,98755.06
2023-03-25T08:09:15.818Z,98747.72
2023-03-25T08:11:42.705Z,98749.50
2023-03-25T08:14:09.163Z,98754.44
2023-03-25T08:16:35.673Z,98755.22
2023-03-25T08:19:02.551Z,98753.16
2023-03-25T08:21:29.588Z,98755.22
2023-03-25T08:24:02.607Z,98748.34
2023-03-25T08:26:30.650Z,98742.22
2023-03-25T08:28:58.040Z,98742.41
2023-03-25T08:31:25.973Z,98736.88
2023-03-25T08:33:52.791Z,98748.19
2023-03-25T08:36:22.467Z,98752.09
2023-03-25T08:38:49.799Z,98746.28
2023-03-25T08:41:17.312Z,98747.81
2023-03-25T08:43:45.137Z,98733.97
2023-03-25T08:46:12.273Z,98729.16
2023-03-25T08:48:39.703Z,98733.97
2023-03-25T08:51:06.699Z,98732.97
2023-03-25T08:53:33.251Z,98742.06
2023-03-25T08:56:00.093Z,98732.97
2023-03-25T08:58:26.852Z,98745.22
2023-03-25T09:00:55.058Z,98736.50
2023-03-25T09:03:22.965Z,98736.06
2023-03-25T09:05:49.897Z,98741.22
2023-03-25T09:08:16.741Z,98735.28
2023-03-25T09:10:43.511Z,98752.81
2023-03-25T09:13:10.466Z,98749.78
2023-03-25T09:15:37.033Z,98747.38
2023-03-25T09:18:05.174Z,98759.03
2023-03-25T09:20:33.080Z,98768.19
2023-03-25T09:22:59.965Z,98764.63
2023-03-25T09:25:27.771Z,98760.47
2023-03-25T09:27:54.280Z,98757.75
2023-03-25T09:30:20.760Z,98768.81
2023-03-25T09:32:47.560Z,98764.56
2023-03-25T09:35:14.024Z,98771.63
2023-03-25T09:37:40.539Z,98764.72
2023-03-25T09:40:08.570Z,98745.09
2023-03-25T09:42:58.954Z,98761.97
2023-03-25T09:45:46.969Z,98752.47
2023-03-25T09:48:37.664Z,98756.22
2023-03-25T09:51:14.925Z,98758.47
2023-03-25T09:53:58.503Z,98766.16
2023-03-25T09:56:29.240Z,98764.97
2023-03-25T09:59:03.429Z,98759.97
2023-03-25T10:01:57.352Z,98765.66
2023-03-25T10:04:47.213Z,98769.50
2023-03-25T10:07:41.429Z,98768.66
2023-03-25T10:10:26.714Z,98762.59
2023-03-25T10:13:09.106Z,98761.78
2023-03-25T10:15:49.557Z,98772.66
2023-03-25T10:18:56.000Z,98774.59
2023-03-25T10:21:49.664Z,98765.66
2023-03-25T10:24:26.750Z,98768.94
2023-03-25T10:27:01.975Z,98773.91
2023-03-25T10:29:38.044Z,98773.87
2023-03-25T10:32:13.021Z,98772.09
2023-03-25T10:34:49.246Z,98775.41
2023-03-25T10:37:35.037Z,98779.00
2023-03-25T10:40:32.994Z,98774.84
2023-03-25T10:43:27.589Z,98774.72
2023-03-25T10:46:00.548Z,98779.66
2023-03-25T10:48:29.204Z,98780.78
2023-03-25T10:51:03.984Z,98787.44
2023-03-25T10:53:30.902Z,98787.69
2023-03-25T10:56:06.260Z,98796.37
2023-03-25T10:58:36.646Z,98800.41
2023-03-25T11:01:12.818Z,98796.41
2023-03-25T11:03:41.352Z,98798.75
2023-03-25T11:06:23.617Z,98796.56
2023-03-25T11:09:11.684Z,98804.03
2023-03-25T11:11:38.271Z,98804.59
2023-03-25T11:14:05.212Z,98805.53
2023-03-25T11:16:35.085Z,98812.31
2023-03-25T11:19:03.202Z,98808.00
2023-03-25T11:21:35.714Z,98812.28
2023-03-25T11:24:05.783Z,98810.09
2023-03-25T11:26:41.360Z,98813.94
2023-03-25T11:29:14.124Z,98805.97
2023-03-25T11:31:41.438Z,98793.06
2023-03-25T11:34:24.612Z,98807.59
2023-03-25T11:36:59.108Z,98804.56
2023-03-25T11:39:34.673Z,98806.91
2023-03-25T11:42:28.207Z,98809.28
2023-03-25T11:44:58.548Z,98801.81
2023-03-25T11:47:30.715Z,98795.44
2023-03-25T11:49:57.573Z,98801.53
2023-03-25T11:52:27.073Z,98793.25
2023-03-25T11:54:55.617Z,98787.75
2023-03-25T11:57:27.162Z,98782.19
2023-03-25T12:00:11.233Z,98789.81
2023-03-25T12:02:40.513Z,98787.00
2023-03-25T12:05:14.280Z,98786.88
2023-03-25T12:07:49.488Z,98798.47
2023-03-25T12:10:54.304Z,98795.00
2023-03-25T12:13:56.612Z,98792.25
2023-03-25T12:16:51.657Z,98789.87
2023-03-25T12:19:57.972Z,98783.97
2023-03-25T12:22:58.312Z,98796.50
2023-03-25T12:25:53.272Z,98792.72
2023-03-25T12:28:44.231Z,98799.22
2023-03-25T12:31:45.892Z,98794.22
2023-03-25T12:34:39.831Z,98776.31
2023-03-25T12:37:34.294Z,98786.34
2023-03-25T12:40:30.781Z,98788.03
2023-03-25T12:43:09.483Z,98790.31
2023-03-25T12:45:50.441Z,98788.94
2023-03-25T12:48:37.135Z,98794.59
2023-03-25T12:51:22.053Z,98795.16
2023-03-25T12:54:12.051Z,98785.22
2023-03-25T12:57:03.919Z,98800.59
2023-03-25T12:59:53.643Z,98793.91
2023-03-25T13:02:51.931Z,98803.38
2023-03-25T13:05:45.594Z,98793.88
2023-03-25T13:08:21.777Z,98786.81
2023-03-25T13:10:56.004Z,98794.56
2023-03-25T13:13:26.037Z,98794.31
2023-03-25T13:16:14.529Z,98787.81
2023-03-25T13:18:51.660Z,98796.63
2023-03-25T13:21:24.038Z,98786.88
2023-03-25T13:24:04.214Z,98803.38
2023-03-25T13:26:32.074Z,98795.38
2023-03-25T13:29:01.077Z,98796.75
2023-03-25T13:31:34.913Z,98791.38
2023-03-25T13:34:30.197Z,98796.37
2023-03-25T13:37:06.321Z,98790.44
2023-03-25T13:40:11.952Z,98797.06
2023-03-25T13:43:06.545Z,98806.56
2023-03-25T13:45:48.791Z,98800.00
2023-03-25T13:48:23.088Z,98798.63
2023-03-25T13:50:51.178Z,98795.44
2023-03-25T13:53:29.392Z,98792.44
2023-03-25T13:56:35.792Z,98789.13
2023-03-25T13:59:42.114Z,98783.88
2023-03-25T14:02:47.216Z,98792.97
2023-03-25T14:05:44.648Z,98796.84
2023-03-25T14:08:39.519Z,98805.66
2023-03-25T14:11:28.953Z,98792.84
2023-03-25T14:14:02.776Z,98801.53
2023-03-25T14:16:35.757Z,98791.72
2023-03-25T14:19:06.600Z,98806.78
2023-03-25T14:21:47.146Z,98816.69
2023-03-25T14:24:21.996Z,98808.69
2023-03-25T14:26:53.028Z,98804.84
2023-03-25T14:29:41.740Z,98786.63
2023-03-25T14:32:32.664Z,98800.44
2023-03-25T14:35:40.649Z,98802.94
2023-03-25T14:38:42.892Z,98799.31
2023-03-25T14:41:09.743Z,98800.16
2023-03-25T14:43:40.355Z,98803.47
2023-03-25T14:46:18.804Z,98779.56
2023-03-25T14:48:51.939Z,98799.28
2023-03-25T14:51:40.973Z,98802.84
2023-03-25T14:54:29.827Z,98801.47
2023-03-25T14:57:06.058Z,98795.13
2023-03-25T14:59:42.305Z,98803.25
2023-03-25T15:02:21.902Z,98814.97
2023-03-25T15:04:59.981Z,98804.47
2023-03-25T15:07:58.484Z,98808.34
2023-03-25T15:10:44.281Z,98798.94
2023-03-25T15:13:23.586Z,98818.53
2023-03-25T15:16:26.426Z,98814.63
2023-03-25T15:19:00.422Z,98813.53
2023-03-25T15:21:32.029Z,98825.53
2023-03-25T15:24:21.829Z,98835.87
2023-03-25T15:26:49.614Z,98821.38
2023-03-25T15:29:46.214Z,98838.47
2023-03-25T15:32:42.264Z,98834.19
2023-03-25T15:35:44.565Z,98844.50
2023-03-25T15:38:42.775Z,98833.91
2023-03-25T15:41:34.000Z,98843.56
2023-03-25T15:44:35.195Z,98845.59
2023-03-25T15:47:20.095Z,98848.91
2023-03-25T15:50:18.794Z,98849.72
2023-03-25T15:53:01.660Z,98859.53
2023-03-25T15:55:51.006Z,98864.78
2023-03-25T15:58:30.916Z,98850.72
2023-03-25T16:01:12.174Z,98868.44
2023-03-25T16:03:39.471Z,98862.69
2023-03-25T16:06:07.805Z,98857.69
2023-03-25T16:08:39.343Z,98870.59
2023-03-25T16:11:23.744Z,98872.28
2023-03-25T16:14:16.376Z,98868.25
2023-03-25T16:16:50.255Z,98877.06
2023-03-25T16:19:22.277Z,98875.13
2023-03-25T16:21:51.551Z,98875.25
2023-03-25T16:24:23.490Z,98878.72
2023-03-25T16:26:50.611Z,98879.94
2023-03-25T16:29:22.670Z,98879.94
2023-03-25T16:31:53.470Z,98879.34
2023-03-25T16:34:20.797Z,98883.38
2023-03-25T16:36:49.756Z,98879.25
2023-03-25T16:39:17.370Z,98876.47
2023-03-25T16:41:49.496Z,98880.47
2023-03-25T16:44:21.378Z,98891.03
2023-03-25T16:46:51.211Z,98883.06
2023-03-25T16:49:28.410Z,98886.38
2023-03-25T16:51:57.050Z,98874.38
2023-03-25T16:54:51.250Z,98878.78
2023-03-25T16:57:24.479Z,98886.91
2023-03-25T16:59:53.434Z,98883.59
2023-03-25T17:02:30.906Z,98892.50
2023-03-25T17:05:18.297Z,98883.25
2023-03-25T17:07:47.692Z,98885.03
2023-03-25T17:10:25.657Z,98886.00
2023-03-25T17:12:57.943Z,98894.22
2023-03-25T17:15:26.596Z,98897.81
2023-03-25T17:18:00.425Z,98896.00
2023-03-25T17:20:36.102Z,98896.53
2023-03-25T17:23:18.416Z,98906.75
2023-03-25T17:26:06.398Z,98917.31
2023-03-25T17:28:39.365Z,98918.97
2023-03-25T17:31:35.789Z,98926.47
2023-03-25T17:34:07.989Z,98918.03
2023-03-25T17:36:37.362Z,98916.81
2023-03-25T17:39:12.672Z,98933.22
2023-03-25T17:41:39.814Z,98937.62
2023-03-25T17:44:06.969Z,98922.47
2023-03-25T17:46:34.542Z,98923.84
2023-03-25T17:49:01.433Z,98915.66
2023-03-25T17:51:30.573Z,98916.94
2023-03-25T17:53:57.109Z,98919.94
2023-03-25T17:56:26.941Z,98933.28
2023-03-25T17:59:03.414Z,98929.91
2023-03-25T18:01:32.003Z,98937.31
2023-03-25T18:03:58.786Z,98932.09
2023-03-25T18:06:27.616Z,98939.59
2023-03-25T18:08:55.121Z,98923.56
2023-03-25T18:11:22.379Z,98928.97
2023-03-25T18:13:49.194Z,98921.09
2023-03-25T18:16:19.888Z,98939.16
2023-03-25T18:18:47.136Z,98939.38
2023-03-25T18:21:15.770Z,98937.53
2023-03-25T18:23:46.979Z,98947.06
2023-03-25T18:26:16.626Z,98942.28
2023-03-25T18:28:44.064Z,98946.63
2023-03-25T18:31:16.070Z,98943.41
2023-03-25T18:33:45.527Z,98935.19
2023-03-25T18:36:14.055Z,98934.00
2023-03-25T18:38:41.128Z,98928.66
2023-03-25T18:41:10.504Z,98929.59
2023-03-25T18:43:37.110Z,98928.72
2023-03-25T18:46:04.707Z,98926.94
2023-03-25T18:48:31.994Z,98939.72
2023-03-25T18:50:59.493Z,98940.47
2023-03-25T18:53:28.395Z,98946.78
2023-03-25T18:55:59.254Z,98938.94
2023-03-25T18:58:30.461Z,98935.97
2023-03-25T19:00:58.343Z,98944.63
2023-03-25T19:03:40.741Z,98950.31
2023-03-25T19:06:12.380Z,98945.81
2023-03-25T19:08:40.314Z,98952.34
2023-03-25T19:11:19.104Z,98956.37
2023-03-25T19:13:48.347Z,98965.63
2023-03-25T19:16:14.995Z,98967.03
2023-03-25T19:18:41.642Z,98965.75
2023-03-25T19:21:09.889Z,98965.13
2023-03-25T19:23:37.067Z,98972.00
2023-03-25T19:26:03.727Z,98964.87
2023-03-25T19:28:30.485Z,98982.25
2023-03-25T19:31:00.434Z,98969.28
2023-03-25T19:33:30.217Z,98976.03
2023-03-25T19:36:00.439Z,98973.19
2023-03-25T19:38:28.051Z,98978.16
2023-03-25T19:41:06.016Z,98972.22
2023-03-25T19:43:33.127Z,98974.84
2023-03-25T19:46:00.292Z,98972.94
2023-03-25T19:48:29.088Z,98968.19
2023-03-25T19:50:56.699Z,98982.25
2023-03-25T19:53:25.477Z,98975.94
2023-03-25T19:55:52.836Z,98975.34
2023-03-25T19:58:21.991Z,98975.81
2023-03-25T20:00:48.742Z,98972.06
2023-03-25T20:03:15.777Z,98985.25
2023-03-25T20:05:42.316Z,98982.78
2023-03-25T20:08:09.027Z,98989.78
2023-03-25T20:10:38.787Z,98988.25
2023-03-25T20:13:05.476Z,98979.00
2023-03-25T20:15:32.437Z,98984.56
2023-03-25T20:17:59.656Z,98984.09
2023-03-25T20:20:26.358Z,98973.66
2023-03-25T20:22:53.336Z,98981.72
2023-03-25T20:25:20.712Z,98978.50
2023-03-25T20:27:47.243Z,98976.97
2023-03-25T20:30:17.413Z,98983.59
2023-03-25T20:32:47.523Z,98979.56
2023-03-25T20:35:16.051Z,98978.44
2023-03-25T20:37:44.304Z,98989.56
2023-03-25T20:40:14.854Z,98984.22
2023-03-25T20:42:43.223Z,98990.84
2023-03-25T20:45:13.016Z,98993.91
2023-03-25T20:47:40.834Z,98988.50
